sensor_id;sensor_type;location;lat;lon;timestamp;P1;durP1;ratioP1;P2;durP2;ratioP2
38783;SDS011;24531;45.502;12.238;2023-06-14T00:01:08;6.90;;;5.45;;
38783;SDS011;24531;45.502;12.238;2023-06-14T00:06:59;11.57;;;5.57;;
38783;SDS011;24531;45.502;12.238;2023-06-14T00:09:31;6.50;;;5.22;;
38783;SDS011;24531;45.502;12.238;2023-06-14T00:15:02;11.32;;;5.88;;
38783;SDS011;24531;45.502;12.238;2023-06-14T00:20:16;6.65;;;5.95;;
38783;SDS011;24531;45.502;12.238;2023-06-14T00:26:22;7.55;;;6.18;;
38783;SDS011;24531;45.502;12.238;2023-06-14T00:28:54;8.52;;;6.38;;
38783;SDS011;24531;45.502;12.238;2023-06-14T00:31:27;7.78;;;6.47;;
38783;SDS011;24531;45.502;12.238;2023-06-14T00:33:52;11.23;;;7.20;;
38783;SDS011;24531;45.502;12.238;2023-06-14T00:36:18;8.48;;;6.07;;
38783;SDS011;24531;45.502;12.238;2023-06-14T00:38:44;7.13;;;5.65;;
38783;SDS011;24531;45.502;12.238;2023-06-14T00:41:09;8.00;;;6.22;;
38783;SDS011;24531;45.502;12.238;2023-06-14T00:43:35;7.30;;;5.72;;
38783;SDS011;24531;45.502;12.238;2023-06-14T00:46:01;7.30;;;5.97;;
38783;SDS011;24531;45.502;12.238;2023-06-14T00:48:26;8.63;;;6.38;;
38783;SDS011;24531;45.502;12.238;2023-06-14T00:50:53;8.77;;;7.05;;
38783;SDS011;24531;45.502;12.238;2023-06-14T00:53:20;9.65;;;6.07;;
38783;SDS011;24531;45.502;12.238;2023-06-14T00:55:47;7.60;;;6.13;;
38783;SDS011;24531;45.502;12.238;2023-06-14T00:58:13;6.97;;;5.90;;
38783;SDS011;24531;45.502;12.238;2023-06-14T01:00:40;8.65;;;6.28;;
38783;SDS011;24531;45.502;12.238;2023-06-14T01:03:05;10.82;;;7.28;;
38783;SDS011;24531;45.502;12.238;2023-06-14T01:05:31;8.57;;;6.28;;
38783;SDS011;24531;45.502;12.238;2023-06-14T01:11:00;6.93;;;5.53;;
38783;SDS011;24531;45.502;12.238;2023-06-14T01:13:37;7.47;;;5.65;;
38783;SDS011;24531;45.502;12.238;2023-06-14T01:16:06;8.05;;;6.07;;
38783;SDS011;24531;45.502;12.238;2023-06-14T01:18:33;9.50;;;6.50;;
38783;SDS011;24531;45.502;12.238;2023-06-14T01:21:00;8.75;;;6.20;;
38783;SDS011;24531;45.502;12.238;2023-06-14T01:23:30;7.60;;;5.65;;
38783;SDS011;24531;45.502;12.238;2023-06-14T01:25:58;8.55;;;6.57;;
38783;SDS011;24531;45.502;12.238;2023-06-14T01:28:25;6.85;;;5.60;;
38783;SDS011;24531;45.502;12.238;2023-06-14T01:30:56;7.25;;;5.47;;
38783;SDS011;24531;45.502;12.238;2023-06-14T01:33:26;8.35;;;6.15;;
38783;SDS011;24531;45.502;12.238;2023-06-14T01:35:53;8.15;;;5.68;;
38783;SDS011;24531;45.502;12.238;2023-06-14T01:38:24;7.18;;;5.85;;
38783;SDS011;24531;45.502;12.238;2023-06-14T01:40:51;9.80;;;6.00;;
38783;SDS011;24531;45.502;12.238;2023-06-14T01:43:20;7.38;;;5.85;;
38783;SDS011;24531;45.502;12.238;2023-06-14T01:45:47;6.50;;;5.40;;
38783;SDS011;24531;45.502;12.238;2023-06-14T01:48:14;8.40;;;5.95;;
38783;SDS011;24531;45.502;12.238;2023-06-14T01:50:40;10.43;;;6.32;;
38783;SDS011;24531;45.502;12.238;2023-06-14T01:53:09;8.18;;;5.43;;
38783;SDS011;24531;45.502;12.238;2023-06-14T01:55:35;7.43;;;5.72;;
38783;SDS011;24531;45.502;12.238;2023-06-14T01:58:05;8.02;;;5.90;;
38783;SDS011;24531;45.502;12.238;2023-06-14T02:00:31;7.28;;;5.47;;
38783;SDS011;24531;45.502;12.238;2023-06-14T02:02:57;8.95;;;5.25;;
38783;SDS011;24531;45.502;12.238;2023-06-14T02:05:22;7.93;;;5.45;;
38783;SDS011;24531;45.502;12.238;2023-06-14T02:07:48;7.72;;;5.93;;
38783;SDS011;24531;45.502;12.238;2023-06-14T02:10:15;9.23;;;4.80;;
38783;SDS011;24531;45.502;12.238;2023-06-14T02:12:42;7.82;;;5.18;;
38783;SDS011;24531;45.502;12.238;2023-06-14T02:15:08;10.73;;;5.28;;
38783;SDS011;24531;45.502;12.238;2023-06-14T02:17:35;7.15;;;4.85;;
38783;SDS011;24531;45.502;12.238;2023-06-14T02:20:00;6.63;;;5.28;;
38783;SDS011;24531;45.502;12.238;2023-06-14T02:22:29;9.70;;;5.28;;
38783;SDS011;24531;45.502;12.238;2023-06-14T02:24:55;6.97;;;5.25;;
38783;SDS011;24531;45.502;12.238;2023-06-14T02:27:21;9.88;;;5.07;;
38783;SDS011;24531;45.502;12.238;2023-06-14T02:29:46;6.88;;;4.50;;
38783;SDS011;24531;45.502;12.238;2023-06-14T02:32:12;5.45;;;4.53;;
38783;SDS011;24531;45.502;12.238;2023-06-14T02:34:38;5.53;;;4.25;;
38783;SDS011;24531;45.502;12.238;2023-06-14T02:37:05;6.20;;;4.40;;
38783;SDS011;24531;45.502;12.238;2023-06-14T02:39:31;5.90;;;4.25;;
38783;SDS011;24531;45.502;12.238;2023-06-14T02:41:57;6.50;;;4.32;;
38783;SDS011;24531;45.502;12.238;2023-06-14T02:44:26;5.40;;;4.15;;
38783;SDS011;24531;45.502;12.238;2023-06-14T02:46:53;6.60;;;4.90;;
38783;SDS011;24531;45.502;12.238;2023-06-14T02:49:20;5.70;;;4.40;;
38783;SDS011;24531;45.502;12.238;2023-06-14T02:51:46;6.53;;;5.13;;
38783;SDS011;24531;45.502;12.238;2023-06-14T02:54:11;5.80;;;4.35;;
38783;SDS011;24531;45.502;12.238;2023-06-14T02:56:37;6.22;;;4.60;;
38783;SDS011;24531;45.502;12.238;2023-06-14T02:59:03;6.15;;;4.55;;
38783;SDS011;24531;45.502;12.238;2023-06-14T03:01:28;5.60;;;4.00;;
38783;SDS011;24531;45.502;12.238;2023-06-14T03:04:02;4.88;;;4.03;;
38783;SDS011;24531;45.502;12.238;2023-06-14T03:06:31;4.85;;;3.97;;
38783;SDS011;24531;45.502;12.238;2023-06-14T03:08:58;5.15;;;4.38;;
38783;SDS011;24531;45.502;12.238;2023-06-14T03:11:28;4.60;;;4.10;;
38783;SDS011;24531;45.502;12.238;2023-06-14T03:13:53;5.55;;;4.07;;
38783;SDS011;24531;45.502;12.238;2023-06-14T03:16:20;5.85;;;4.55;;
38783;SDS011;24531;45.502;12.238;2023-06-14T03:18:48;6.78;;;4.22;;
38783;SDS011;24531;45.502;12.238;2023-06-14T03:21:14;4.38;;;3.97;;
38783;SDS011;24531;45.502;12.238;2023-06-14T03:23:41;4.75;;;3.97;;
38783;SDS011;24531;45.502;12.238;2023-06-14T03:26:07;7.70;;;4.75;;
38783;SDS011;24531;45.502;12.238;2023-06-14T03:28:33;5.05;;;4.10;;
38783;SDS011;24531;45.502;12.238;2023-06-14T03:30:59;5.35;;;4.20;;
38783;SDS011;24531;45.502;12.238;2023-06-14T03:33:24;5.43;;;4.20;;
38783;SDS011;24531;45.502;12.238;2023-06-14T03:35:50;5.20;;;4.13;;
38783;SDS011;24531;45.502;12.238;2023-06-14T03:38:16;6.82;;;4.32;;
38783;SDS011;24531;45.502;12.238;2023-06-14T03:40:42;4.50;;;3.75;;
38783;SDS011;24531;45.502;12.238;2023-06-14T03:43:09;7.57;;;4.72;;
38783;SDS011;24531;45.502;12.238;2023-06-14T03:45:35;5.22;;;4.20;;
38783;SDS011;24531;45.502;12.238;2023-06-14T03:48:01;7.82;;;5.32;;
38783;SDS011;24531;45.502;12.238;2023-06-14T03:50:27;9.15;;;5.05;;
38783;SDS011;24531;45.502;12.238;2023-06-14T03:52:53;5.90;;;4.65;;
38783;SDS011;24531;45.502;12.238;2023-06-14T03:55:19;6.82;;;5.40;;
38783;SDS011;24531;45.502;12.238;2023-06-14T03:57:45;7.53;;;5.13;;
38783;SDS011;24531;45.502;12.238;2023-06-14T04:00:10;8.18;;;5.40;;
38783;SDS011;24531;45.502;12.238;2023-06-14T04:02:37;11.20;;;5.82;;
38783;SDS011;24531;45.502;12.238;2023-06-14T04:05:03;6.57;;;5.38;;
38783;SDS011;24531;45.502;12.238;2023-06-14T04:07:33;6.88;;;5.63;;
38783;SDS011;24531;45.502;12.238;2023-06-14T04:10:05;7.05;;;5.10;;
38783;SDS011;24531;45.502;12.238;2023-06-14T04:12:32;9.05;;;5.80;;
38783;SDS011;24531;45.502;12.238;2023-06-14T04:14:58;7.28;;;5.75;;
38783;SDS011;24531;45.502;12.238;2023-06-14T04:17:23;6.22;;;5.38;;
38783;SDS011;24531;45.502;12.238;2023-06-14T04:19:49;7.00;;;5.00;;
38783;SDS011;24531;45.502;12.238;2023-06-14T04:22:15;5.93;;;4.68;;
38783;SDS011;24531;45.502;12.238;2023-06-14T04:24:41;11.40;;;5.93;;
38783;SDS011;24531;45.502;12.238;2023-06-14T04:27:07;6.18;;;4.88;;
38783;SDS011;24531;45.502;12.238;2023-06-14T04:29:33;8.30;;;4.47;;
38783;SDS011;24531;45.502;12.238;2023-06-14T04:31:58;7.93;;;5.10;;
38783;SDS011;24531;45.502;12.238;2023-06-14T04:34:28;7.07;;;5.30;;
38783;SDS011;24531;45.502;12.238;2023-06-14T04:36:59;4.88;;;4.18;;
38783;SDS011;24531;45.502;12.238;2023-06-14T04:39:26;6.72;;;4.78;;
38783;SDS011;24531;45.502;12.238;2023-06-14T04:41:53;7.57;;;5.35;;
38783;SDS011;24531;45.502;12.238;2023-06-14T04:44:22;6.55;;;5.07;;
38783;SDS011;24531;45.502;12.238;2023-06-14T04:46:49;6.72;;;5.40;;
38783;SDS011;24531;45.502;12.238;2023-06-14T04:49:15;5.82;;;4.80;;
38783;SDS011;24531;45.502;12.238;2023-06-14T04:51:42;5.82;;;4.65;;
38783;SDS011;24531;45.502;12.238;2023-06-14T04:54:08;7.28;;;5.05;;
38783;SDS011;24531;45.502;12.238;2023-06-14T04:56:40;6.65;;;4.90;;
38783;SDS011;24531;45.502;12.238;2023-06-14T04:59:07;5.97;;;4.00;;
38783;SDS011;24531;45.502;12.238;2023-06-14T05:01:36;5.20;;;4.35;;
38783;SDS011;24531;45.502;12.238;2023-06-14T05:04:02;6.88;;;4.35;;
38783;SDS011;24531;45.502;12.238;2023-06-14T05:06:31;5.40;;;4.30;;
38783;SDS011;24531;45.502;12.238;2023-06-14T05:15:08;7.43;;;4.25;;
38783;SDS011;24531;45.502;12.238;2023-06-14T05:17:38;6.13;;;4.53;;
38783;SDS011;24531;45.502;12.238;2023-06-14T05:20:05;5.38;;;4.53;;
38783;SDS011;24531;45.502;12.238;2023-06-14T05:22:37;7.15;;;4.00;;
38783;SDS011;24531;45.502;12.238;2023-06-14T05:25:03;5.85;;;3.92;;
38783;SDS011;24531;45.502;12.238;2023-06-14T05:27:29;5.25;;;3.80;;
38783;SDS011;24531;45.502;12.238;2023-06-14T05:29:55;5.05;;;4.55;;
38783;SDS011;24531;45.502;12.238;2023-06-14T05:32:23;5.20;;;3.35;;
38783;SDS011;24531;45.502;12.238;2023-06-14T05:34:49;6.03;;;3.70;;
38783;SDS011;24531;45.502;12.238;2023-06-14T05:37:15;4.80;;;3.40;;
38783;SDS011;24531;45.502;12.238;2023-06-14T05:39:40;6.82;;;4.03;;
38783;SDS011;24531;45.502;12.238;2023-06-14T05:42:06;6.10;;;3.85;;
38783;SDS011;24531;45.502;12.238;2023-06-14T05:44:32;5.35;;;3.60;;
38783;SDS011;24531;45.502;12.238;2023-06-14T05:46:58;5.60;;;3.80;;
38783;SDS011;24531;45.502;12.238;2023-06-14T05:49:23;9.32;;;3.88;;
38783;SDS011;24531;45.502;12.238;2023-06-14T05:51:49;5.53;;;4.00;;
38783;SDS011;24531;45.502;12.238;2023-06-14T05:54:16;5.50;;;4.05;;
38783;SDS011;24531;45.502;12.238;2023-06-14T05:56:41;6.78;;;3.92;;
38783;SDS011;24531;45.502;12.238;2023-06-14T05:59:07;6.30;;;4.13;;
38783;SDS011;24531;45.502;12.238;2023-06-14T06:01:33;7.10;;;3.97;;
38783;SDS011;24531;45.502;12.238;2023-06-14T06:04:01;6.43;;;3.65;;
38783;SDS011;24531;45.502;12.238;2023-06-14T06:06:27;5.00;;;3.75;;
38783;SDS011;24531;45.502;12.238;2023-06-14T06:08:53;8.93;;;4.15;;
38783;SDS011;24531;45.502;12.238;2023-06-14T06:11:18;6.28;;;3.78;;
38783;SDS011;24531;45.502;12.238;2023-06-14T06:13:45;6.90;;;3.47;;
38783;SDS011;24531;45.502;12.238;2023-06-14T06:16:10;10.38;;;3.58;;
38783;SDS011;24531;45.502;12.238;2023-06-14T06:18:36;6.63;;;3.88;;
38783;SDS011;24531;45.502;12.238;2023-06-14T06:21:03;4.82;;;4.07;;
38783;SDS011;24531;45.502;12.238;2023-06-14T06:23:29;4.30;;;3.88;;
38783;SDS011;24531;45.502;12.238;2023-06-14T06:25:55;4.60;;;3.90;;
38783;SDS011;24531;45.502;12.238;2023-06-14T06:28:20;7.00;;;3.88;;
38783;SDS011;24531;45.502;12.238;2023-06-14T06:30:46;6.25;;;4.03;;
38783;SDS011;24531;45.502;12.238;2023-06-14T06:33:11;6.07;;;3.38;;
38783;SDS011;24531;45.502;12.238;2023-06-14T06:35:38;5.15;;;3.55;;
38783;SDS011;24531;45.502;12.238;2023-06-14T06:38:03;6.97;;;3.40;;
38783;SDS011;24531;45.502;12.238;2023-06-14T06:40:29;6.78;;;4.50;;
38783;SDS011;24531;45.502;12.238;2023-06-14T06:42:54;5.68;;;4.15;;
38783;SDS011;24531;45.502;12.238;2023-06-14T06:45:20;4.47;;;3.38;;
38783;SDS011;24531;45.502;12.238;2023-06-14T06:47:46;5.43;;;4.10;;
38783;SDS011;24531;45.502;12.238;2023-06-14T06:50:11;6.75;;;3.38;;
38783;SDS011;24531;45.502;12.238;2023-06-14T06:52:37;4.82;;;3.00;;
38783;SDS011;24531;45.502;12.238;2023-06-14T06:55:03;5.25;;;3.72;;
38783;SDS011;24531;45.502;12.238;2023-06-14T06:57:29;5.18;;;3.33;;
38783;SDS011;24531;45.502;12.238;2023-06-14T06:59:54;6.22;;;3.60;;
38783;SDS011;24531;45.502;12.238;2023-06-14T07:02:20;6.03;;;3.60;;
38783;SDS011;24531;45.502;12.238;2023-06-14T07:04:45;6.07;;;3.88;;
38783;SDS011;24531;45.502;12.238;2023-06-14T07:07:11;4.88;;;3.70;;
38783;SDS011;24531;45.502;12.238;2023-06-14T07:09:37;6.25;;;3.70;;
38783;SDS011;24531;45.502;12.238;2023-06-14T07:12:02;7.63;;;3.50;;
38783;SDS011;24531;45.502;12.238;2023-06-14T07:14:28;9.85;;;3.78;;
38783;SDS011;24531;45.502;12.238;2023-06-14T07:16:55;3.95;;;3.15;;
38783;SDS011;24531;45.502;12.238;2023-06-14T07:19:20;4.57;;;3.15;;
38783;SDS011;24531;45.502;12.238;2023-06-14T07:21:46;4.70;;;3.42;;
38783;SDS011;24531;45.502;12.238;2023-06-14T07:24:12;3.38;;;2.63;;
38783;SDS011;24531;45.502;12.238;2023-06-14T07:26:38;4.95;;;3.15;;
38783;SDS011;24531;45.502;12.238;2023-06-14T07:29:04;7.57;;;3.40;;
38783;SDS011;24531;45.502;12.238;2023-06-14T07:31:29;5.43;;;3.28;;
38783;SDS011;24531;45.502;12.238;2023-06-14T07:33:55;7.72;;;2.88;;
38783;SDS011;24531;45.502;12.238;2023-06-14T07:36:21;6.50;;;3.17;;
38783;SDS011;24531;45.502;12.238;2023-06-14T07:38:47;4.28;;;2.72;;
38783;SDS011;24531;45.502;12.238;2023-06-14T07:41:13;3.80;;;3.08;;
38783;SDS011;24531;45.502;12.238;2023-06-14T07:43:38;6.15;;;2.85;;
38783;SDS011;24531;45.502;12.238;2023-06-14T07:46:04;3.80;;;2.58;;
38783;SDS011;24531;45.502;12.238;2023-06-14T07:48:30;5.95;;;3.30;;
38783;SDS011;24531;45.502;12.238;2023-06-14T07:50:56;5.22;;;2.75;;
38783;SDS011;24531;45.502;12.238;2023-06-14T07:53:21;4.28;;;3.25;;
38783;SDS011;24531;45.502;12.238;2023-06-14T07:55:48;4.28;;;2.78;;
38783;SDS011;24531;45.502;12.238;2023-06-14T07:58:13;3.78;;;2.85;;
38783;SDS011;24531;45.502;12.238;2023-06-14T08:00:39;3.75;;;3.13;;
38783;SDS011;24531;45.502;12.238;2023-06-14T08:03:08;4.97;;;3.47;;
38783;SDS011;24531;45.502;12.238;2023-06-14T08:05:36;8.40;;;3.13;;
38783;SDS011;24531;45.502;12.238;2023-06-14T08:08:02;7.45;;;3.08;;
38783;SDS011;24531;45.502;12.238;2023-06-14T08:10:28;4.82;;;2.70;;
38783;SDS011;24531;45.502;12.238;2023-06-14T08:12:53;4.03;;;2.60;;
38783;SDS011;24531;45.502;12.238;2023-06-14T08:15:19;11.18;;;2.63;;
38783;SDS011;24531;45.502;12.238;2023-06-14T08:17:45;3.45;;;2.50;;
38783;SDS011;24531;45.502;12.238;2023-06-14T08:20:13;8.05;;;2.67;;
38783;SDS011;24531;45.502;12.238;2023-06-14T08:22:40;5.32;;;3.13;;
38783;SDS011;24531;45.502;12.238;2023-06-14T08:25:07;5.00;;;3.03;;
38783;SDS011;24531;45.502;12.238;2023-06-14T08:27:33;6.57;;;3.80;;
38783;SDS011;24531;45.502;12.238;2023-06-14T08:29:59;5.40;;;3.35;;
38783;SDS011;24531;45.502;12.238;2023-06-14T08:32:25;5.50;;;2.90;;
38783;SDS011;24531;45.502;12.238;2023-06-14T08:34:51;3.28;;;2.40;;
38783;SDS011;24531;45.502;12.238;2023-06-14T08:37:16;4.72;;;2.90;;
38783;SDS011;24531;45.502;12.238;2023-06-14T08:39:42;4.22;;;3.00;;
38783;SDS011;24531;45.502;12.238;2023-06-14T08:42:09;7.05;;;3.17;;
38783;SDS011;24531;45.502;12.238;2023-06-14T08:44:35;6.70;;;2.97;;
38783;SDS011;24531;45.502;12.238;2023-06-14T08:47:01;5.65;;;3.40;;
38783;SDS011;24531;45.502;12.238;2023-06-14T08:49:28;5.07;;;3.03;;
38783;SDS011;24531;45.502;12.238;2023-06-14T08:52:02;3.80;;;3.03;;
38783;SDS011;24531;45.502;12.238;2023-06-14T08:54:29;5.00;;;2.90;;
38783;SDS011;24531;45.502;12.238;2023-06-14T08:56:56;3.47;;;2.65;;
38783;SDS011;24531;45.502;12.238;2023-06-14T08:59:31;3.22;;;2.92;;
38783;SDS011;24531;45.502;12.238;2023-06-14T09:02:03;6.45;;;2.75;;
38783;SDS011;24531;45.502;12.238;2023-06-14T09:04:31;5.70;;;2.97;;
38783;SDS011;24531;45.502;12.238;2023-06-14T09:06:57;4.78;;;3.00;;
38783;SDS011;24531;45.502;12.238;2023-06-14T09:09:23;6.18;;;2.58;;
38783;SDS011;24531;45.502;12.238;2023-06-14T09:11:50;6.28;;;2.60;;
38783;SDS011;24531;45.502;12.238;2023-06-14T09:14:18;4.05;;;2.53;;
38783;SDS011;24531;45.502;12.238;2023-06-14T09:16:44;4.15;;;3.20;;
38783;SDS011;24531;45.502;12.238;2023-06-14T09:19:13;3.70;;;2.97;;
38783;SDS011;24531;45.502;12.238;2023-06-14T09:21:49;4.72;;;2.53;;
38783;SDS011;24531;45.502;12.238;2023-06-14T09:24:17;4.43;;;2.53;;
38783;SDS011;24531;45.502;12.238;2023-06-14T09:26:46;4.78;;;3.03;;
38783;SDS011;24531;45.502;12.238;2023-06-14T09:29:12;3.63;;;2.22;;
38783;SDS011;24531;45.502;12.238;2023-06-14T09:31:38;2.60;;;2.13;;
38783;SDS011;24531;45.502;12.238;2023-06-14T09:34:04;4.32;;;2.45;;
38783;SDS011;24531;45.502;12.238;2023-06-14T09:36:31;2.92;;;2.28;;
38783;SDS011;24531;45.502;12.238;2023-06-14T09:39:01;6.72;;;2.40;;
38783;SDS011;24531;45.502;12.238;2023-06-14T09:41:34;3.50;;;2.60;;
38783;SDS011;24531;45.502;12.238;2023-06-14T09:44:05;4.00;;;2.90;;
38783;SDS011;24531;45.502;12.238;2023-06-14T09:46:35;5.85;;;2.90;;
38783;SDS011;24531;45.502;12.238;2023-06-14T09:49:02;3.88;;;2.53;;
38783;SDS011;24531;45.502;12.238;2023-06-14T09:51:29;4.10;;;3.00;;
38783;SDS011;24531;45.502;12.238;2023-06-14T09:53:59;8.63;;;2.30;;
38783;SDS011;24531;45.502;12.238;2023-06-14T09:56:30;4.85;;;2.28;;
38783;SDS011;24531;45.502;12.238;2023-06-14T09:59:04;3.45;;;2.50;;
38783;SDS011;24531;45.502;12.238;2023-06-14T10:01:32;3.78;;;2.42;;
38783;SDS011;24531;45.502;12.238;2023-06-14T10:04:04;6.78;;;2.92;;
38783;SDS011;24531;45.502;12.238;2023-06-14T10:06:31;6.88;;;2.33;;
38783;SDS011;24531;45.502;12.238;2023-06-14T10:08:58;5.95;;;2.60;;
38783;SDS011;24531;45.502;12.238;2023-06-14T10:11:27;3.45;;;2.80;;
38783;SDS011;24531;45.502;12.238;2023-06-14T10:13:54;4.68;;;3.08;;
38783;SDS011;24531;45.502;12.238;2023-06-14T10:16:38;4.93;;;2.90;;
38783;SDS011;24531;45.502;12.238;2023-06-14T10:19:22;4.13;;;2.80;;
38783;SDS011;24531;45.502;12.238;2023-06-14T10:21:58;5.15;;;2.80;;
38783;SDS011;24531;45.502;12.238;2023-06-14T10:24:33;3.80;;;2.38;;
38783;SDS011;24531;45.502;12.238;2023-06-14T10:27:07;4.13;;;2.55;;
38783;SDS011;24531;45.502;12.238;2023-06-14T10:32:22;3.72;;;2.78;;
38783;SDS011;24531;45.502;12.238;2023-06-14T10:34:53;4.53;;;2.97;;
38783;SDS011;24531;45.502;12.238;2023-06-14T10:37:23;3.10;;;2.80;;
38783;SDS011;24531;45.502;12.238;2023-06-14T10:39:50;9.82;;;3.00;;
38783;SDS011;24531;45.502;12.238;2023-06-14T10:42:16;3.95;;;2.97;;
38783;SDS011;24531;45.502;12.238;2023-06-14T10:44:51;4.13;;;3.13;;
38783;SDS011;24531;45.502;12.238;2023-06-14T10:52:42;3.97;;;2.50;;
38783;SDS011;24531;45.502;12.238;2023-06-14T10:55:12;4.88;;;2.35;;
38783;SDS011;24531;45.502;12.238;2023-06-14T10:57:43;5.13;;;2.88;;
38783;SDS011;24531;45.502;12.238;2023-06-14T11:00:16;4.18;;;3.17;;
38783;SDS011;24531;45.502;12.238;2023-06-14T11:10:38;7.63;;;3.40;;
38783;SDS011;24531;45.502;12.238;2023-06-14T11:13:05;4.93;;;2.60;;
38783;SDS011;24531;45.502;12.238;2023-06-14T11:15:32;3.95;;;2.65;;
38783;SDS011;24531;45.502;12.238;2023-06-14T11:18:05;4.53;;;2.83;;
38783;SDS011;24531;45.502;12.238;2023-06-14T11:20:33;3.10;;;2.63;;
38783;SDS011;24531;45.502;12.238;2023-06-14T11:23:00;3.22;;;2.63;;
38783;SDS011;24531;45.502;12.238;2023-06-14T11:25:27;6.63;;;2.95;;
38783;SDS011;24531;45.502;12.238;2023-06-14T11:27:53;4.38;;;2.75;;
38783;SDS011;24531;45.502;12.238;2023-06-14T11:30:19;3.50;;;2.90;;
38783;SDS011;24531;45.502;12.238;2023-06-14T11:32:51;3.17;;;2.42;;
38783;SDS011;24531;45.502;12.238;2023-06-14T11:35:18;3.80;;;3.00;;
38783;SDS011;24531;45.502;12.238;2023-06-14T11:37:48;2.95;;;2.47;;
38783;SDS011;24531;45.502;12.238;2023-06-14T11:40:14;6.88;;;3.05;;
38783;SDS011;24531;45.502;12.238;2023-06-14T11:42:40;6.20;;;2.95;;
38783;SDS011;24531;45.502;12.238;2023-06-14T11:45:07;4.28;;;2.90;;
38783;SDS011;24531;45.502;12.238;2023-06-14T11:47:34;7.55;;;3.20;;
38783;SDS011;24531;45.502;12.238;2023-06-14T11:50:05;6.10;;;3.50;;
38783;SDS011;24531;45.502;12.238;2023-06-14T11:52:33;4.65;;;2.45;;
38783;SDS011;24531;45.502;12.238;2023-06-14T11:55:02;4.30;;;2.65;;
38783;SDS011;24531;45.502;12.238;2023-06-14T11:57:34;4.18;;;2.50;;
38783;SDS011;24531;45.502;12.238;2023-06-14T12:00:04;4.22;;;2.97;;
38783;SDS011;24531;45.502;12.238;2023-06-14T12:02:37;4.55;;;3.20;;
38783;SDS011;24531;45.502;12.238;2023-06-14T12:05:06;3.88;;;3.20;;
38783;SDS011;24531;45.502;12.238;2023-06-14T12:07:38;7.72;;;2.83;;
38783;SDS011;24531;45.502;12.238;2023-06-14T12:10:05;4.13;;;2.85;;
38783;SDS011;24531;45.502;12.238;2023-06-14T12:12:35;5.13;;;3.38;;
38783;SDS011;24531;45.502;12.238;2023-06-14T12:15:05;6.70;;;2.97;;
38783;SDS011;24531;45.502;12.238;2023-06-14T12:17:33;5.32;;;2.53;;
38783;SDS011;24531;45.502;12.238;2023-06-14T12:20:04;3.20;;;2.50;;
38783;SDS011;24531;45.502;12.238;2023-06-14T12:22:38;5.07;;;2.65;;
38783;SDS011;24531;45.502;12.238;2023-06-14T12:25:11;3.33;;;2.72;;
38783;SDS011;24531;45.502;12.238;2023-06-14T12:27:51;8.02;;;2.80;;
38783;SDS011;24531;45.502;12.238;2023-06-14T12:30:18;3.65;;;2.72;;
38783;SDS011;24531;45.502;12.238;2023-06-14T12:32:44;3.92;;;3.08;;
38783;SDS011;24531;45.502;12.238;2023-06-14T12:35:10;5.47;;;3.03;;
38783;SDS011;24531;45.502;12.238;2023-06-14T12:37:36;5.07;;;3.53;;
38783;SDS011;24531;45.502;12.238;2023-06-14T12:40:01;3.33;;;2.63;;
38783;SDS011;24531;45.502;12.238;2023-06-14T12:42:30;4.80;;;3.13;;
38783;SDS011;24531;45.502;12.238;2023-06-14T12:44:56;6.45;;;2.97;;
38783;SDS011;24531;45.502;12.238;2023-06-14T12:47:22;5.05;;;3.60;;
38783;SDS011;24531;45.502;12.238;2023-06-14T12:49:47;5.43;;;3.47;;
38783;SDS011;24531;45.502;12.238;2023-06-14T12:52:13;3.90;;;3.10;;
38783;SDS011;24531;45.502;12.238;2023-06-14T12:54:38;5.03;;;3.25;;
38783;SDS011;24531;45.502;12.238;2023-06-14T12:57:05;4.22;;;3.45;;
38783;SDS011;24531;45.502;12.238;2023-06-14T12:59:31;4.93;;;3.28;;
38783;SDS011;24531;45.502;12.238;2023-06-14T13:01:59;8.15;;;3.17;;
38783;SDS011;24531;45.502;12.238;2023-06-14T13:04:35;5.60;;;3.25;;
38783;SDS011;24531;45.502;12.238;2023-06-14T13:07:01;5.68;;;2.92;;
38783;SDS011;24531;45.502;12.238;2023-06-14T13:09:37;4.30;;;3.10;;
38783;SDS011;24531;45.502;12.238;2023-06-14T13:12:17;5.57;;;4.05;;
38783;SDS011;24531;45.502;12.238;2023-06-14T13:14:46;5.95;;;3.50;;
38783;SDS011;24531;45.502;12.238;2023-06-14T13:17:17;9.63;;;3.20;;
38783;SDS011;24531;45.502;12.238;2023-06-14T13:19:45;5.90;;;4.00;;
38783;SDS011;24531;45.502;12.238;2023-06-14T13:25:14;7.25;;;3.30;;
38783;SDS011;24531;45.502;12.238;2023-06-14T13:31:00;5.28;;;3.47;;
38783;SDS011;24531;45.502;12.238;2023-06-14T13:33:26;5.25;;;3.20;;
38783;SDS011;24531;45.502;12.238;2023-06-14T13:35:51;6.15;;;3.28;;
38783;SDS011;24531;45.502;12.238;2023-06-14T13:38:18;9.00;;;3.83;;
38783;SDS011;24531;45.502;12.238;2023-06-14T13:40:43;4.63;;;3.70;;
38783;SDS011;24531;45.502;12.238;2023-06-14T13:43:09;4.45;;;3.08;;
38783;SDS011;24531;45.502;12.238;2023-06-14T13:45:44;6.03;;;3.42;;
38783;SDS011;24531;45.502;12.238;2023-06-14T13:48:09;4.35;;;3.15;;
38783;SDS011;24531;45.502;12.238;2023-06-14T13:50:35;7.80;;;3.83;;
38783;SDS011;24531;45.502;12.238;2023-06-14T13:53:00;6.43;;;3.10;;
38783;SDS011;24531;45.502;12.238;2023-06-14T13:55:26;5.95;;;4.05;;
38783;SDS011;24531;45.502;12.238;2023-06-14T13:57:55;4.72;;;3.78;;
38783;SDS011;24531;45.502;12.238;2023-06-14T14:00:21;4.68;;;3.78;;
38783;SDS011;24531;45.502;12.238;2023-06-14T14:02:47;6.10;;;3.10;;
38783;SDS011;24531;45.502;12.238;2023-06-14T14:05:15;8.60;;;3.50;;
38783;SDS011;24531;45.502;12.238;2023-06-14T14:07:41;6.22;;;3.40;;
38783;SDS011;24531;45.502;12.238;2023-06-14T14:10:07;8.10;;;4.47;;
38783;SDS011;24531;45.502;12.238;2023-06-14T14:12:33;7.93;;;4.03;;
38783;SDS011;24531;45.502;12.238;2023-06-14T14:15:02;4.32;;;2.95;;
38783;SDS011;24531;45.502;12.238;2023-06-14T14:27:18;6.13;;;2.97;;
38783;SDS011;24531;45.502;12.238;2023-06-14T14:29:49;4.38;;;3.35;;
38783;SDS011;24531;45.502;12.238;2023-06-14T14:32:14;4.22;;;3.22;;
38783;SDS011;24531;45.502;12.238;2023-06-14T14:34:51;3.88;;;3.33;;
38783;SDS011;24531;45.502;12.238;2023-06-14T14:40:29;4.13;;;3.05;;
38783;SDS011;24531;45.502;12.238;2023-06-14T14:43:07;4.20;;;2.25;;
38783;SDS011;24531;45.502;12.238;2023-06-14T14:45:32;6.18;;;2.67;;
38783;SDS011;24531;45.502;12.238;2023-06-14T14:48:04;5.22;;;2.53;;
38783;SDS011;24531;45.502;12.238;2023-06-14T14:50:46;6.78;;;2.95;;
38783;SDS011;24531;45.502;12.238;2023-06-14T14:53:15;4.38;;;2.90;;
38783;SDS011;24531;45.502;12.238;2023-06-14T14:55:50;3.85;;;2.90;;
38783;SDS011;24531;45.502;12.238;2023-06-14T14:58:19;4.82;;;2.63;;
38783;SDS011;24531;45.502;12.238;2023-06-14T15:00:50;7.35;;;3.15;;
38783;SDS011;24531;45.502;12.238;2023-06-14T15:03:22;3.47;;;2.30;;
38783;SDS011;24531;45.502;12.238;2023-06-14T15:05:48;8.43;;;3.17;;
38783;SDS011;24531;45.502;12.238;2023-06-14T15:08:13;8.30;;;2.75;;
38783;SDS011;24531;45.502;12.238;2023-06-14T15:10:39;4.88;;;2.75;;
38783;SDS011;24531;45.502;12.238;2023-06-14T15:13:06;4.75;;;2.50;;
38783;SDS011;24531;45.502;12.238;2023-06-14T15:15:41;7.10;;;2.65;;
38783;SDS011;24531;45.502;12.238;2023-06-14T15:18:07;5.30;;;2.45;;
38783;SDS011;24531;45.502;12.238;2023-06-14T15:20:42;4.32;;;3.03;;
38783;SDS011;24531;45.502;12.238;2023-06-14T15:23:17;9.57;;;2.88;;
38783;SDS011;24531;45.502;12.238;2023-06-14T15:25:45;3.40;;;2.10;;
38783;SDS011;24531;45.502;12.238;2023-06-14T15:28:17;3.45;;;2.50;;
38783;SDS011;24531;45.502;12.238;2023-06-14T15:30:44;5.80;;;2.72;;
38783;SDS011;24531;45.502;12.238;2023-06-14T15:33:09;5.40;;;2.67;;